Tuesday, July 23, 2019 (12:21 UTC)
OPMET DATA
 
Terminal Aerodrome Forecast (TAF) and METAR
TAFs are issued by Aviation Meteorological Office, for Abu Dhabi (OMAA), Bateen (OMAD), Al Ain (OMAL), Dubai (OMDB), Al Maktoum (OMDW), Sharjah (OMSJ), Ras Al Khaimah (OMRK) and Fujairah (OMFJ) airports. These TAFs are issued every 6 hours and are valid for a 30 hour period. METARs (Aviation Routine Weather Reports) are updated hourly.
Show ICAO codes
Select OPMET type:        SEARCH   PRINT
Aviation Meteorology - National Center of Meteorology (NCM)
Telephone: +971 2 5757346 / 5053676
Email: metweb@adiamet.gov.ae
Website: www.avmet.ae
METAR COR OMAA 231200Z 32010KT 280V060 9000 NSC 43/22 Q0994 NOSIG=
METAR OMAD 231200Z 36008KT 310V040 9000 NSC 43/19 Q0994 NOSIG=
METAR OMAL 231200Z VRB03KT 9000 NSC 43/20 Q0997 BECMG 35010KT=
METAR OMDB 231200Z 36010KT 8000 NSC 39/26 Q0995 NOSIG=
METAR OMDW 231200Z 34014KT 4000 DU NSC 40/23 Q0995 NOSIG=
METAR OMFJ 231200Z 09008KT 050V130 7000 FEW020 34/27 Q0997 A2946=
METAR OMSJ 231200Z 35010KT 330V030 8000 NSC 39/25 Q0995 NOSIG=
METAR OMRK 231200Z 34011KT 8000 NSC 39/25 Q0995 A2940=
METAR OTBD 231200Z 09008KT 060V120 5000 HZ NSC 36/30 Q0995 NOSIG=
METAR OTHH 231200Z 09008KT 060V130 5000 HZ NSC 36/28 Q0995 NOSIG=
METAR OBBI 231200Z 08009KT CAVOK 36/27 Q0996 NOSIG=
METAR OEDF 231200Z 04009KT CAVOK 41/19 Q0995 NOSIG=
METAR OEDR 231200Z 06010KT 7000 SKC 40/28 Q0994 NOSIG=
METAR OEJN 231200Z 30015KT CAVOK 38/16 Q1003 NOSIG=
METAR OEMA 231200Z 32017KT CAVOK 42/M04 Q1006 NOSIG=
METAR OEPA 231200Z 36015KT CAVOK 46/07 Q1000 NOSIG=
METAR OERF 231200Z 02002KT CAVOK 44/00 Q1002=
METAR OERK 231200Z 01017KT 6000 NSC 44/01 Q1003 NOSIG=
METAR OERR 231200Z 15006KT CAVOK 42/11 Q1003 NOSIG=
METAR OERY 231100Z 01017G29KT 7000 SKC 43/01 Q1003=
METAR OESH 231200Z 01006KT 6000 NSC 42/11 Q1001 NOSIG=
METAR OETB 231200Z 31004KT CAVOK 38/03 Q1006 NOSIG=
METAR OETF 231200Z 33016KT CAVOK 35/05 Q1015 NOSIG=
METAR OETR 231200Z 21004KT CAVOK 39/07 Q1006=
METAR OEWD 231200Z 28010KT CAVOK 45/10 Q1000=
METAR OEWJ 231200Z 20013KT CAVOK 32/27 Q1002 NOSIG=
METAR OEYN 231200Z 23020KT CAVOK 35/23 Q1001 NOSIG=
METAR OKBK 231200Z 36022KT 7000 SKC 48/04 Q0996 NOSIG=
METAR OOMS 231150Z 06018KT 8000 FEW030 BKN100 33/26 Q0995 WS R08L NOSIG=
METAR OOSA 231150Z 19012KT 9999 SCT014 BKN025 29/26 Q0997 NOSIG=
METAR OYSN NIL=
METAR OYAA NIL=
 
Tuesday, July 23, 2019 (12:21 UTC)